Terminal Aerodrome Forecast
Issued by NWS St Louis, MO

Home | Current Version | Previous Version | Text Only | Print | Product List | Glossary On
Versions: 1 2 3 4 5 6 7 8 9
742
FTUS43 KLSX 251129
TAFCOU
TAF
KCOU 251129Z 2512/2612 16009KT P6SM SCT250
     FM251500 16012G20KT P6SM SCT250
     FM260000 17010G18KT P6SM BKN100
     FM260600 16008KT P6SM BKN060
     FM260900 19008KT P6SM -SHRA VCTS OVC030CB=

USA.gov is the U.S. government's official web portal to all federal, state and local government web resources and services.